Arcadia Highway — 3FQT4 — position and weather

sailwx.info

Track history (hours):
 
Tides and Currents Weather Stations Pressure Air Temp Water Temp Dewpoint Dewpoint Depression Visibility Wind Speed Wind Dir Waves Ship Positions

Arcadia Highway

Last reported at 2016-Apr-08 11:03 UTC. Time now 2016-May-06 07:18 UTC.
Position N 02°10' E 102°01'.
Warning: this ship's position is 27 days out of date.

Length 179 m; draft 8.3 m.

Type: Cargo ship. MMSI: 354342000.

Date/timePositionNaut miles runAvg speedWind from/ knotsBaromVisibWave heightAir tempDewpointWater temp
2016-Apr-08 11:03N 02°10' E 102°01'613.4
2016-Apr-08 10:34N 02°06' E 102°06'1514.8
2016-Apr-08 09:33N 01°57' E 102°18'1615.9
2016-Apr-08 08:33N 01°50' E 102°32'1716.4
2016-Apr-08 07:32N 01°43' E 102°47'4614.8
2016-Apr-08 04:26N 01°15' E 103°24'1213.7
2016-Apr-08 03:33N 01°12' E 103°35'10 9.6
2016-Apr-08 02:33N 01°16' E 103°44'2 1.4
2016-Apr-08 01:29N 01°17' E 103°45'0 0.0
2016-Apr-08 00:30N 01°17' E 103°45'0 0.0
2016-Apr-07 23:30N 01°17' E 103°45'0 0.0
2016-Apr-07 22:30N 01°17' E 103°45'0 0.0
2016-Apr-07 21:29N 01°17' E 103°45'0 0.0
2016-Apr-07 20:24N 01°17' E 103°45'0 0.0
2016-Apr-07 19:30N 01°17' E 103°45'0 0.0
2016-Apr-07 18:30N 01°17' E 103°45'0 0.0
2016-Apr-07 17:30N 01°17' E 103°45'0 0.0
2016-Apr-07 16:29N 01°17' E 103°45'0 0.0
2016-Apr-07 15:30N 01°17' E 103°45'0 0.0
2016-Apr-07 14:30N 01°17' E 103°45'0 0.0
2016-Apr-07 13:29N 01°17' E 103°45'0 0.0
2016-Apr-07 12:30N 01°17' E 103°45'0 0.0
2016-Apr-07 11:21N 01°17' E 103°45'0 0.1
2016-Apr-07 10:33N 01°17' E 103°45'6 6.2
2016-Apr-07 09:33N 01°13' E 103°49'7 7.0
2016-Apr-07 08:33N 01°14' E 103°56'9 9.4
2016-Apr-07 07:33N 01°16' E 104°05'  
2016-Mar-30 10:21N 35°03' E 139°41'1012.6
2016-Mar-30 09:33N 35°12' E 139°45'11 9.7
2016-Mar-30 08:26N 35°23' E 139°42'5 5.1
2016-Mar-30 07:32N 35°27' E 139°41'0 0.0
2016-Mar-30 06:32N 35°27' E 139°41'0 0.0
2016-Mar-30 05:32N 35°27' E 139°41'0 0.0
2016-Mar-30 04:32N 35°27' E 139°41'0 0.0
2016-Mar-30 03:29N 35°27' E 139°41'0 0.1
2016-Mar-30 02:32N 35°27' E 139°41'0 0.0
2016-Mar-30 01:32N 35°27' E 139°41'0 0.0
2016-Mar-30 00:32N 35°27' E 139°41'0 0.0
2016-Mar-29 23:32N 35°27' E 139°41'0 0.0
2016-Mar-29 22:32N 35°27' E 139°41'3 2.9
2016-Mar-29 21:33N 35°25' E 139°43'9 9.4
2016-Mar-29 20:33N 35°16' E 139°46'10 9.7
2016-Mar-29 19:33N 35°06' E 139°46'1111.0
2016-Mar-29 18:33N 34°56' E 139°43'1515.0
2016-Mar-29 17:32N 34°40' E 139°42'  
Track history (hours):
 
Tides and Currents Weather Stations Pressure Air Temp Water Temp Dewpoint Dewpoint Depression Visibility Wind Speed Wind Dir Waves Ship Positions

Arcadia Highway

Last reported at 2016-Apr-08 11:03 UTC. Time now 2016-May-06 07:18 UTC.
Position N 02°10' E 102°01'.
Warning: this ship's position is 27 days out of date.

Length 179 m; draft 8.3 m.

Type: Cargo ship. MMSI: 354342000.

Date/timePositionNaut miles runAvg speedWind from/ knotsBaromVisibWave heightAir tempDewpointWater temp
2016-Apr-08 11:03N 02°10' E 102°01'613.4
2016-Apr-08 10:34N 02°06' E 102°06'1514.8
2016-Apr-08 09:33N 01°57' E 102°18'1615.9
2016-Apr-08 08:33N 01°50' E 102°32'1716.4
2016-Apr-08 07:32N 01°43' E 102°47'4614.8
2016-Apr-08 04:26N 01°15' E 103°24'1213.7
2016-Apr-08 03:33N 01°12' E 103°35'10 9.6
2016-Apr-08 02:33N 01°16' E 103°44'2 1.4
2016-Apr-08 01:29N 01°17' E 103°45'0 0.0
2016-Apr-08 00:30N 01°17' E 103°45'0 0.0
2016-Apr-07 23:30N 01°17' E 103°45'0 0.0
2016-Apr-07 22:30N 01°17' E 103°45'0 0.0
2016-Apr-07 21:29N 01°17' E 103°45'0 0.0
2016-Apr-07 20:24N 01°17' E 103°45'0 0.0
2016-Apr-07 19:30N 01°17' E 103°45'0 0.0
2016-Apr-07 18:30N 01°17' E 103°45'0 0.0
2016-Apr-07 17:30N 01°17' E 103°45'0 0.0
2016-Apr-07 16:29N 01°17' E 103°45'0 0.0
2016-Apr-07 15:30N 01°17' E 103°45'0 0.0
2016-Apr-07 14:30N 01°17' E 103°45'0 0.0
2016-Apr-07 13:29N 01°17' E 103°45'0 0.0
2016-Apr-07 12:30N 01°17' E 103°45'0 0.0
2016-Apr-07 11:21N 01°17' E 103°45'0 0.1
2016-Apr-07 10:33N 01°17' E 103°45'6 6.2
2016-Apr-07 09:33N 01°13' E 103°49'7 7.0
2016-Apr-07 08:33N 01°14' E 103°56'9 9.4
2016-Apr-07 07:33N 01°16' E 104°05'  
2016-Mar-30 10:21N 35°03' E 139°41'1012.6
2016-Mar-30 09:33N 35°12' E 139°45'11 9.7
2016-Mar-30 08:26N 35°23' E 139°42'5 5.1
2016-Mar-30 07:32N 35°27' E 139°41'0 0.0
2016-Mar-30 06:32N 35°27' E 139°41'0 0.0
2016-Mar-30 05:32N 35°27' E 139°41'0 0.0
2016-Mar-30 04:32N 35°27' E 139°41'0 0.0
2016-Mar-30 03:29N 35°27' E 139°41'0 0.1
2016-Mar-30 02:32N 35°27' E 139°41'0 0.0
2016-Mar-30 01:32N 35°27' E 139°41'0 0.0
2016-Mar-30 00:32N 35°27' E 139°41'0 0.0
2016-Mar-29 23:32N 35°27' E 139°41'0 0.0
2016-Mar-29 22:32N 35°27' E 139°41'3 2.9
2016-Mar-29 21:33N 35°25' E 139°43'9 9.4
2016-Mar-29 20:33N 35°16' E 139°46'10 9.7
2016-Mar-29 19:33N 35°06' E 139°46'1111.0
2016-Mar-29 18:33N 34°56' E 139°43'1515.0
2016-Mar-29 17:32N 34°40' E 139°42'  

Dump ship's entire track history